createdAt,value
2023-04-16T00:01:44.513Z,0.90
2023-04-16T00:04:13.216Z,0.93
2023-04-16T00:06:41.361Z,0.82
2023-04-16T00:09:09.210Z,1.10
2023-04-16T00:11:39.410Z,0.95
2023-04-16T00:14:07.034Z,1.10
2023-04-16T00:16:34.680Z,1.17
2023-04-16T00:19:02.719Z,0.93
2023-04-16T00:21:31.235Z,0.93
2023-04-16T00:23:59.187Z,1.20
2023-04-16T00:26:27.191Z,1.10
2023-04-16T00:28:54.969Z,1.00
2023-04-16T00:31:30.712Z,1.88
2023-04-16T00:33:59.746Z,1.52
2023-04-16T00:36:28.218Z,1.50
2023-04-16T00:38:57.169Z,1.40
2023-04-16T00:41:25.020Z,1.30
2023-04-16T00:43:52.942Z,1.35
2023-04-16T00:46:23.472Z,1.70
2023-04-16T00:48:53.147Z,1.50
2023-04-16T00:51:21.689Z,1.10
2023-04-16T00:53:49.604Z,1.42
2023-04-16T00:56:18.258Z,1.45
2023-04-16T00:58:45.849Z,1.98
2023-04-16T01:01:17.018Z,1.45
2023-04-16T01:03:48.023Z,1.90
2023-04-16T01:06:18.814Z,1.60
2023-04-16T01:08:47.590Z,1.52
2023-04-16T01:11:16.002Z,1.83
2023-04-16T01:13:43.747Z,1.70
2023-04-16T01:16:13.013Z,1.48
2023-04-16T01:18:40.941Z,1.83
2023-04-16T01:21:09.570Z,1.65
2023-04-16T01:23:37.469Z,2.03
2023-04-16T01:26:05.185Z,2.30
2023-04-16T01:28:34.804Z,2.10
2023-04-16T01:31:02.597Z,2.33
2023-04-16T01:36:13.755Z,2.08
2023-04-16T01:38:41.592Z,2.70
2023-04-16T01:41:09.496Z,1.98
2023-04-16T01:43:39.033Z,1.90
2023-04-16T01:46:16.199Z,2.20
2023-04-16T01:48:44.756Z,2.10
2023-04-16T01:51:12.404Z,2.17
2023-04-16T01:53:40.005Z,2.00
2023-04-16T01:56:08.231Z,2.10
2023-04-16T01:58:36.816Z,1.90
2023-04-16T02:01:06.019Z,2.08
2023-04-16T02:03:34.682Z,1.90
2023-04-16T02:06:02.501Z,2.40
2023-04-16T02:08:30.184Z,1.90
2023-04-16T02:10:58.385Z,2.13
2023-04-16T02:13:27.122Z,2.40
2023-04-16T02:15:55.401Z,1.95
2023-04-16T02:18:52.488Z,2.25
2023-04-16T02:21:23.024Z,1.90
2023-04-16T02:23:52.110Z,2.40
2023-04-16T02:26:24.313Z,2.25
2023-04-16T02:28:52.291Z,2.17
2023-04-16T02:31:25.855Z,2.67
2023-04-16T02:33:53.541Z,2.17
2023-04-16T02:36:21.629Z,2.38
2023-04-16T02:38:49.383Z,2.95
2023-04-16T02:41:17.157Z,2.25
2023-04-16T02:43:45.050Z,2.28
2023-04-16T02:46:12.753Z,2.58
2023-04-16T02:48:41.119Z,1.92
2023-04-16T02:51:09.037Z,2.20
2023-04-16T02:53:36.636Z,2.03
2023-04-16T02:56:04.560Z,2.15
2023-04-16T02:58:32.065Z,2.30
2023-04-16T03:00:59.655Z,2.00
2023-04-16T03:03:27.695Z,2.03
2023-04-16T03:05:55.695Z,1.90
2023-04-16T03:08:23.492Z,1.98
2023-04-16T03:10:51.421Z,2.55
2023-04-16T03:13:19.123Z,2.20
2023-04-16T03:15:50.488Z,2.72
2023-04-16T03:18:18.266Z,2.42
2023-04-16T03:20:45.908Z,2.00
2023-04-16T03:23:13.423Z,2.30
2023-04-16T03:25:41.175Z,2.63
2023-04-16T03:28:10.231Z,2.05
2023-04-16T03:30:39.647Z,1.90
2023-04-16T03:33:08.779Z,2.00
2023-04-16T03:35:38.676Z,1.80
2023-04-16T03:38:06.626Z,1.95
2023-04-16T03:40:34.539Z,1.90
2023-04-16T03:43:02.464Z,2.45
2023-04-16T03:45:30.365Z,2.10
2023-04-16T03:48:02.163Z,2.42
2023-04-16T03:50:29.865Z,1.75
2023-04-16T03:52:57.694Z,2.05
2023-04-16T03:55:25.748Z,2.15
2023-04-16T03:57:53.669Z,1.98
2023-04-16T04:00:21.332Z,2.15
2023-04-16T04:02:59.846Z,2.00
2023-04-16T04:05:28.574Z,2.22
2023-04-16T04:07:56.115Z,1.85
2023-04-16T04:10:24.134Z,2.00
2023-04-16T04:12:52.345Z,2.80
2023-04-16T04:15:20.202Z,3.03
2023-04-16T04:17:48.357Z,2.80
2023-04-16T04:20:16.450Z,2.60
2023-04-16T04:22:46.537Z,2.17
2023-04-16T04:25:14.861Z,3.10
2023-04-16T04:27:42.823Z,2.78
2023-04-16T04:30:13.272Z,2.85
2023-04-16T04:32:42.561Z,2.63
2023-04-16T04:35:11.299Z,2.88
2023-04-16T04:37:39.266Z,2.70
2023-04-16T04:40:14.703Z,2.65
2023-04-16T04:42:42.312Z,2.90
2023-04-16T04:45:11.636Z,2.88
2023-04-16T04:47:39.253Z,3.92
2023-04-16T04:50:08.017Z,2.58
2023-04-16T04:52:36.041Z,2.22
2023-04-16T04:55:04.619Z,2.53
2023-04-16T04:57:32.456Z,2.53
2023-04-16T05:00:00.567Z,2.70
2023-04-16T05:02:33.644Z,2.50
2023-04-16T05:05:01.377Z,2.20
2023-04-16T05:07:29.133Z,1.98
2023-04-16T05:09:56.889Z,2.50
2023-04-16T05:12:24.802Z,2.40
2023-04-16T05:14:52.670Z,2.28
2023-04-16T05:17:21.113Z,2.00
2023-04-16T05:19:48.755Z,2.17
2023-04-16T05:22:19.317Z,1.73
2023-04-16T05:24:47.078Z,2.22
2023-04-16T05:27:15.434Z,2.72
2023-04-16T05:29:43.077Z,2.10
2023-04-16T05:32:11.043Z,2.17
2023-04-16T05:34:40.694Z,2.70
2023-04-16T05:37:08.514Z,3.60
2023-04-16T05:39:37.052Z,2.88
2023-04-16T05:42:04.875Z,3.00
2023-04-16T05:44:32.713Z,2.45
2023-04-16T05:47:00.286Z,2.30
2023-04-16T05:49:27.767Z,2.60
2023-04-16T05:51:55.519Z,2.35
2023-04-16T05:54:23.154Z,2.30
2023-04-16T05:56:50.689Z,2.33
2023-04-16T05:59:18.209Z,2.55
2023-04-16T06:01:45.726Z,2.45
2023-04-16T06:04:13.652Z,2.58
2023-04-16T06:06:41.353Z,2.40
2023-04-16T06:09:09.209Z,2.10
2023-04-16T06:11:37.226Z,2.17
2023-04-16T06:14:05.046Z,2.00
2023-04-16T06:16:32.840Z,1.77
2023-04-16T06:19:00.393Z,2.22
2023-04-16T06:21:28.853Z,1.42
2023-04-16T06:23:57.017Z,1.65
2023-04-16T06:26:24.576Z,1.30
2023-04-16T06:28:52.014Z,1.25
2023-04-16T06:31:21.753Z,1.15
2023-04-16T06:33:49.420Z,1.20
2023-04-16T06:36:16.996Z,1.25
2023-04-16T06:38:44.565Z,1.67
2023-04-16T06:41:13.771Z,1.40
2023-04-16T06:43:41.441Z,1.67
2023-04-16T06:46:09.200Z,1.52
2023-04-16T06:48:36.696Z,1.42
2023-04-16T06:51:04.420Z,1.23
2023-04-16T06:53:32.088Z,1.55
2023-04-16T06:55:59.749Z,1.50
2023-04-16T06:58:27.473Z,1.90
2023-04-16T07:00:55.285Z,2.20
2023-04-16T07:03:22.930Z,2.40
2023-04-16T07:05:50.741Z,2.58
2023-04-16T07:08:18.118Z,2.58
2023-04-16T07:10:45.656Z,2.17
2023-04-16T07:13:13.420Z,2.13
2023-04-16T07:15:41.083Z,2.55
2023-04-16T07:18:08.678Z,2.25
2023-04-16T07:20:36.528Z,2.17
2023-04-16T07:23:03.941Z,2.08
2023-04-16T07:25:31.808Z,3.08
2023-04-16T07:27:59.410Z,2.50
2023-04-16T07:30:32.933Z,2.67
2023-04-16T07:33:01.789Z,2.55
2023-04-16T07:35:30.433Z,2.22
2023-04-16T07:37:58.010Z,2.85
2023-04-16T07:40:25.572Z,2.38
2023-04-16T07:42:53.375Z,2.53
2023-04-16T07:45:20.901Z,2.38
2023-04-16T07:47:48.603Z,2.28
2023-04-16T07:50:16.527Z,2.20
2023-04-16T07:52:45.456Z,2.30
2023-04-16T07:55:12.979Z,2.50
2023-04-16T07:57:41.539Z,3.17
2023-04-16T08:00:09.651Z,2.83
2023-04-16T08:02:43.912Z,4.03
2023-04-16T08:05:12.614Z,3.78
2023-04-16T08:07:40.254Z,2.90
2023-04-16T08:10:08.621Z,3.70
2023-04-16T08:12:36.179Z,3.50
2023-04-16T08:15:03.938Z,3.83
2023-04-16T08:17:33.232Z,3.88
2023-04-16T08:20:00.749Z,4.75
2023-04-16T08:22:28.217Z,5.05
2023-04-16T08:24:55.816Z,4.07
2023-04-16T08:27:23.376Z,3.83
2023-04-16T08:29:51.128Z,3.40
2023-04-16T08:32:18.787Z,4.75
2023-04-16T08:34:46.596Z,4.30
2023-04-16T08:37:14.064Z,4.72
2023-04-16T08:39:41.841Z,3.50
2023-04-16T08:42:19.122Z,3.50
2023-04-16T08:44:49.630Z,3.53
2023-04-16T08:47:17.709Z,2.83
2023-04-16T08:49:48.917Z,2.60
2023-04-16T08:52:22.113Z,2.90
2023-04-16T08:55:12.161Z,2.15
2023-04-16T08:57:48.552Z,2.22
2023-04-16T09:00:16.727Z,2.00
2023-04-16T09:02:45.045Z,2.25
2023-04-16T09:05:17.190Z,2.30
2023-04-16T09:07:48.672Z,2.85
2023-04-16T09:10:16.688Z,2.75
2023-04-16T09:12:44.689Z,2.60
2023-04-16T09:15:14.035Z,2.30
2023-04-16T09:17:42.424Z,2.00
2023-04-16T09:20:11.033Z,2.10
2023-04-16T09:22:40.423Z,2.47
2023-04-16T09:25:08.518Z,2.47
2023-04-16T09:27:36.776Z,1.98
2023-04-16T09:30:24.549Z,1.95
2023-04-16T09:32:53.376Z,2.33
2023-04-16T09:35:21.633Z,2.63
2023-04-16T09:37:58.748Z,2.13
2023-04-16T09:40:27.789Z,2.22
2023-04-16T09:43:00.568Z,2.85
2023-04-16T09:45:32.248Z,2.00
2023-04-16T09:48:05.107Z,2.30
2023-04-16T09:50:32.719Z,2.30
2023-04-16T09:53:03.667Z,1.90
2023-04-16T09:55:32.797Z,2.38
2023-04-16T09:58:01.303Z,1.30
2023-04-16T10:00:30.646Z,1.65
2023-04-16T10:03:05.878Z,1.27
2023-04-16T10:05:33.812Z,1.48
2023-04-16T10:08:02.206Z,1.70
2023-04-16T10:10:30.153Z,1.33
2023-04-16T10:12:58.219Z,1.27
2023-04-16T10:15:26.131Z,1.67
2023-04-16T10:17:54.201Z,1.77
2023-04-16T10:20:23.930Z,1.27
2023-04-16T10:22:52.160Z,1.70
2023-04-16T10:25:20.235Z,1.80
2023-04-16T10:27:48.205Z,1.50
2023-04-16T10:30:16.875Z,1.77
2023-04-16T10:32:46.495Z,1.20
2023-04-16T10:35:21.476Z,1.00
2023-04-16T10:37:49.281Z,1.75
2023-04-16T10:40:27.737Z,1.13
2023-04-16T10:42:59.567Z,1.20
2023-04-16T10:45:38.113Z,0.98
2023-04-16T10:48:10.117Z,0.88
2023-04-16T10:50:38.008Z,1.17
2023-04-16T10:53:27.286Z,1.33
2023-04-16T10:56:04.774Z,0.80
2023-04-16T10:58:36.321Z,0.85
2023-04-16T11:01:34.174Z,1.10
2023-04-16T11:04:22.200Z,1.13
2023-04-16T11:07:14.715Z,1.38
2023-04-16T11:10:03.201Z,1.60
2023-04-16T11:12:40.263Z,1.50
2023-04-16T11:15:10.530Z,1.20
2023-04-16T11:17:40.556Z,1.40
2023-04-16T11:20:20.865Z,1.45
2023-04-16T11:22:54.995Z,1.55
2023-04-16T11:25:23.955Z,1.00
2023-04-16T11:27:52.326Z,1.42
2023-04-16T11:30:29.649Z,1.13
2023-04-16T11:32:57.462Z,1.83
2023-04-16T11:35:25.307Z,1.80
2023-04-16T11:37:57.326Z,2.70
2023-04-16T11:40:26.176Z,2.50
2023-04-16T11:42:53.733Z,2.25
2023-04-16T11:45:21.682Z,2.28
2023-04-16T11:47:56.839Z,2.28
2023-04-16T11:50:26.296Z,2.00
2023-04-16T11:52:55.868Z,1.90
2023-04-16T11:55:24.537Z,2.50
2023-04-16T11:57:52.408Z,2.17
2023-04-16T12:00:22.506Z,2.67
2023-04-16T12:02:54.589Z,3.03
2023-04-16T12:05:40.802Z,2.97
2023-04-16T12:08:10.240Z,2.60
2023-04-16T12:10:54.969Z,1.90
2023-04-16T12:13:23.365Z,2.28
2023-04-16T12:15:52.868Z,2.13
2023-04-16T12:18:23.071Z,2.70
2023-04-16T12:20:51.761Z,2.47
2023-04-16T12:23:29.587Z,2.80
2023-04-16T12:26:02.371Z,2.65
2023-04-16T12:28:36.800Z,2.25
2023-04-16T12:31:05.874Z,2.85
2023-04-16T12:33:34.832Z,2.55
2023-04-16T12:36:17.864Z,2.55
2023-04-16T12:38:46.118Z,2.38
2023-04-16T12:41:17.052Z,2.08
2023-04-16T12:43:45.377Z,3.03
2023-04-16T12:46:12.984Z,2.80
2023-04-16T12:48:41.773Z,2.13
2023-04-16T12:51:11.911Z,2.35
2023-04-16T12:53:39.701Z,2.50
2023-04-16T12:56:07.426Z,2.22
2023-04-16T12:58:35.292Z,2.97
2023-04-16T13:01:02.790Z,2.72
2023-04-16T13:03:31.235Z,2.83
2023-04-16T13:05:58.968Z,2.53
2023-04-16T13:08:26.570Z,2.30
2023-04-16T13:10:53.979Z,2.78
2023-04-16T13:13:21.402Z,2.45
2023-04-16T13:15:48.827Z,2.05
2023-04-16T13:18:16.415Z,2.25
2023-04-16T13:20:44.273Z,2.30
2023-04-16T13:23:12.092Z,2.20
2023-04-16T13:25:39.554Z,2.05
2023-04-16T13:28:07.261Z,2.45
2023-04-16T13:30:35.068Z,2.30
2023-04-16T13:33:02.642Z,2.00
2023-04-16T13:35:30.962Z,2.28
2023-04-16T13:38:01.823Z,2.88
2023-04-16T13:40:29.320Z,2.47
2023-04-16T13:42:56.820Z,2.60
2023-04-16T13:45:24.506Z,2.30
2023-04-16T13:47:52.035Z,2.55
2023-04-16T13:50:19.759Z,2.17
2023-04-16T13:52:47.446Z,2.08
2023-04-16T13:55:18.146Z,2.72
2023-04-16T13:58:04.519Z,2.72
2023-04-16T14:00:34.699Z,2.30
2023-04-16T14:03:02.546Z,2.30
2023-04-16T14:05:30.149Z,2.40
2023-04-16T14:07:57.787Z,2.03
2023-04-16T14:10:25.450Z,1.90
2023-04-16T14:12:53.692Z,2.10
2023-04-16T14:15:21.312Z,2.33
2023-04-16T14:17:48.922Z,2.80
2023-04-16T14:20:16.562Z,2.95
2023-04-16T14:22:44.996Z,2.88
2023-04-16T14:25:13.137Z,2.40
2023-04-16T14:27:41.571Z,4.00
2023-04-16T14:30:10.029Z,3.85
2023-04-16T14:32:37.859Z,2.75
2023-04-16T14:35:06.532Z,3.50
2023-04-16T14:37:36.006Z,3.22
2023-04-16T14:40:09.040Z,3.22
2023-04-16T14:42:37.763Z,2.60
2023-04-16T14:45:06.893Z,2.53
2023-04-16T14:47:35.675Z,3.25
2023-04-16T14:50:03.860Z,2.78
2023-04-16T14:52:32.273Z,2.88
2023-04-16T14:54:59.902Z,2.60
2023-04-16T14:57:27.588Z,2.67
2023-04-16T14:59:55.011Z,2.60
2023-04-16T15:02:22.753Z,2.45
2023-04-16T15:04:50.427Z,2.95
2023-04-16T15:07:18.001Z,3.03
2023-04-16T15:09:45.545Z,2.92
2023-04-16T15:12:13.212Z,2.33
2023-04-16T15:14:41.253Z,2.88
2023-04-16T15:17:09.715Z,3.60
2023-04-16T15:19:37.302Z,2.88
2023-04-16T15:22:04.970Z,3.42
2023-04-16T15:24:32.671Z,2.90
2023-04-16T15:27:02.275Z,2.60
2023-04-16T15:29:29.818Z,2.78
2023-04-16T15:31:57.394Z,2.42
2023-04-16T15:34:24.875Z,2.33
2023-04-16T15:36:52.400Z,2.28
2023-04-16T15:39:21.054Z,3.35
2023-04-16T15:42:00.753Z,2.35
2023-04-16T15:44:31.075Z,2.28
2023-04-16T15:46:59.043Z,1.73
2023-04-16T15:49:26.934Z,1.77
2023-04-16T15:51:55.699Z,1.85
2023-04-16T15:54:23.773Z,2.13
2023-04-16T15:56:51.658Z,2.03
2023-04-16T15:59:21.181Z,1.30
2023-04-16T16:01:49.369Z,1.60
2023-04-16T16:04:17.251Z,1.75
2023-04-16T16:06:47.936Z,1.60
2023-04-16T16:09:15.695Z,1.52
2023-04-16T16:11:43.566Z,1.55
2023-04-16T16:14:11.444Z,1.48
2023-04-16T16:16:40.028Z,1.65
2023-04-16T16:19:07.869Z,2.10
2023-04-16T16:21:35.544Z,2.47
2023-04-16T16:24:03.192Z,3.72
2023-04-16T16:26:31.262Z,2.38
2023-04-16T16:28:58.821Z,2.50
2023-04-16T16:31:27.154Z,2.45
2023-04-16T16:33:54.983Z,1.60
2023-04-16T16:36:26.863Z,1.23
2023-04-16T16:38:55.153Z,1.40
2023-04-16T16:41:22.914Z,1.10
2023-04-16T16:43:51.077Z,1.25
2023-04-16T16:46:18.832Z,1.20
2023-04-16T16:48:46.581Z,1.48
2023-04-16T16:51:16.907Z,1.60
2023-04-16T16:53:46.665Z,1.10
2023-04-16T16:56:14.452Z,1.10
2023-04-16T16:58:42.056Z,0.90
2023-04-16T17:01:10.408Z,1.73
2023-04-16T17:03:38.086Z,1.63
2023-04-16T17:06:05.974Z,0.80
2023-04-16T17:08:33.827Z,0.93
2023-04-16T17:11:05.104Z,0.88
2023-04-16T17:13:32.842Z,1.00
2023-04-16T17:16:01.349Z,0.95
2023-04-16T17:18:29.114Z,1.10
2023-04-16T17:20:56.760Z,1.00
2023-04-16T17:23:24.818Z,0.88
2023-04-16T17:25:52.313Z,0.90
2023-04-16T17:28:20.925Z,0.70
2023-04-16T17:30:53.248Z,0.77
2023-04-16T17:33:21.085Z,0.70
2023-04-16T17:35:48.656Z,0.88
2023-04-16T17:38:16.172Z,1.02
2023-04-16T17:40:43.604Z,1.20
2023-04-16T17:43:11.104Z,0.88
2023-04-16T17:45:38.610Z,0.65
2023-04-16T17:48:06.498Z,0.90
2023-04-16T17:50:34.233Z,0.70
2023-04-16T17:53:03.865Z,0.63
2023-04-16T17:55:31.766Z,0.98
2023-04-16T17:58:00.508Z,1.00
2023-04-16T18:00:28.132Z,1.13
2023-04-16T18:02:57.023Z,1.35
2023-04-16T18:05:24.784Z,1.45
2023-04-16T18:07:53.435Z,1.30
2023-04-16T18:10:22.759Z,1.70
2023-04-16T18:12:50.204Z,2.30
2023-04-16T18:15:17.858Z,1.80
2023-04-16T18:17:45.437Z,1.40
2023-04-16T18:20:16.757Z,1.42
2023-04-16T18:22:44.602Z,1.10
2023-04-16T18:25:12.310Z,1.23
2023-04-16T18:27:39.947Z,1.23
2023-04-16T18:30:17.498Z,1.17
2023-04-16T18:33:09.875Z,1.50
2023-04-16T18:35:34.892Z,1.40
2023-04-16T18:38:02.884Z,1.40
2023-04-16T18:40:34.353Z,1.65
2023-04-16T18:43:02.846Z,1.70
2023-04-16T18:45:31.203Z,2.08
2023-04-16T18:48:03.694Z,2.28
2023-04-16T18:50:31.165Z,2.25
2023-04-16T18:52:58.727Z,3.10
2023-04-16T18:55:26.191Z,2.83
2023-04-16T18:57:55.091Z,2.40
2023-04-16T19:00:22.828Z,2.05
2023-04-16T19:02:50.642Z,2.50
2023-04-16T19:05:18.749Z,1.90
2023-04-16T19:07:46.301Z,2.03
2023-04-16T19:10:14.011Z,1.92
2023-04-16T19:12:41.515Z,2.15
2023-04-16T19:15:09.444Z,2.10
2023-04-16T19:17:37.094Z,1.90
2023-04-16T19:20:10.565Z,2.13
2023-04-16T19:22:38.603Z,1.75
2023-04-16T19:25:07.242Z,2.13
2023-04-16T19:27:35.035Z,2.00
2023-04-16T19:30:03.598Z,1.90
2023-04-16T19:32:32.081Z,2.00
2023-04-16T19:34:59.800Z,1.95
2023-04-16T19:37:27.630Z,2.08
2023-04-16T19:39:55.309Z,1.60
2023-04-16T19:42:22.998Z,2.13
2023-04-16T19:44:50.738Z,1.60
2023-04-16T19:47:19.956Z,1.67
2023-04-16T19:49:47.597Z,1.70
2023-04-16T19:52:16.437Z,2.00
2023-04-16T19:54:44.788Z,2.05
2023-04-16T19:57:12.244Z,2.03
2023-04-16T19:59:39.774Z,1.83
2023-04-16T20:02:07.353Z,1.80
2023-04-16T20:04:35.975Z,1.63
2023-04-16T20:07:03.678Z,1.80
2023-04-16T20:09:31.140Z,1.55
2023-04-16T20:11:58.881Z,1.55
2023-04-16T20:14:26.408Z,2.40
2023-04-16T20:16:53.931Z,1.95
2023-04-16T20:19:22.140Z,1.67
2023-04-16T20:21:49.670Z,1.90
2023-04-16T20:24:17.159Z,1.90
2023-04-16T20:26:44.610Z,2.05
2023-04-16T20:29:12.523Z,2.13
2023-04-16T20:31:42.757Z,2.17
2023-04-16T20:34:10.259Z,2.50
2023-04-16T20:36:37.698Z,2.42
2023-04-16T20:39:08.208Z,2.88
2023-04-16T20:41:36.252Z,3.25
2023-04-16T20:44:05.638Z,3.22
2023-04-16T20:46:36.225Z,2.55
2023-04-16T20:49:03.692Z,2.97
2023-04-16T20:51:31.619Z,3.08
2023-04-16T20:53:59.018Z,3.15
2023-04-16T20:56:26.585Z,2.45
2023-04-16T20:58:54.064Z,3.10
2023-04-16T21:01:21.571Z,2.30
2023-04-16T21:03:49.172Z,2.42
2023-04-16T21:06:17.816Z,3.03
2023-04-16T21:08:45.406Z,3.22
2023-04-16T21:11:13.192Z,2.70
2023-04-16T21:13:40.528Z,2.47
2023-04-16T21:16:09.913Z,2.95
2023-04-16T21:18:38.291Z,2.22
2023-04-16T21:21:06.107Z,2.70
2023-04-16T21:23:33.851Z,2.45
2023-04-16T21:26:08.874Z,2.20
2023-04-16T21:28:36.396Z,2.22
2023-04-16T21:31:04.194Z,1.92
2023-04-16T21:33:34.831Z,1.90
2023-04-16T21:36:02.412Z,2.70
2023-04-16T21:38:30.094Z,2.08
2023-04-16T21:40:57.481Z,1.58
2023-04-16T21:43:26.792Z,1.55
2023-04-16T21:45:54.934Z,1.63
2023-04-16T21:48:23.225Z,1.40
2023-04-16T21:51:06.829Z,1.23
2023-04-16T21:53:40.174Z,1.70
2023-04-16T21:56:08.195Z,1.25
2023-04-16T21:58:39.532Z,1.15
2023-04-16T22:01:09.544Z,1.42
2023-04-16T22:03:40.747Z,1.50
2023-04-16T22:06:11.713Z,1.65
2023-04-16T22:08:42.153Z,1.50
2023-04-16T22:11:10.249Z,1.15
2023-04-16T22:13:42.478Z,1.23
2023-04-16T22:16:11.734Z,1.52
2023-04-16T22:18:41.120Z,1.20
2023-04-16T22:21:08.551Z,1.25
2023-04-16T22:23:35.982Z,0.90
2023-04-16T22:26:04.256Z,1.10
2023-04-16T22:28:31.768Z,1.20
2023-04-16T22:30:59.503Z,0.98
2023-04-16T22:33:30.587Z,1.10
2023-04-16T22:36:00.240Z,1.50
2023-04-16T22:38:27.766Z,2.00
2023-04-16T22:40:55.388Z,1.60
2023-04-16T22:43:23.234Z,1.83
2023-04-16T22:46:00.212Z,1.70
2023-04-16T22:48:28.084Z,1.70
2023-04-16T22:50:55.573Z,2.17
2023-04-16T22:53:23.153Z,2.20
2023-04-16T22:55:51.208Z,2.30
2023-04-16T22:58:18.829Z,1.80
2023-04-16T23:00:47.713Z,2.92
2023-04-16T23:03:15.877Z,2.25
2023-04-16T23:05:43.373Z,2.20
2023-04-16T23:08:11.049Z,2.38
2023-04-16T23:10:38.893Z,2.08
2023-04-16T23:13:06.485Z,2.20
2023-04-16T23:15:34.260Z,2.70
2023-04-16T23:18:02.049Z,2.00
2023-04-16T23:20:29.611Z,2.42
2023-04-16T23:22:57.489Z,2.65
2023-04-16T23:25:25.725Z,2.10
2023-04-16T23:27:53.272Z,2.38
2023-04-16T23:30:20.926Z,2.15
2023-04-16T23:32:49.094Z,2.53
2023-04-16T23:35:22.808Z,3.05
2023-04-16T23:40:18.559Z,2.20
2023-04-16T23:42:46.091Z,2.53
2023-04-16T23:45:13.721Z,1.80
2023-04-16T23:47:41.473Z,1.90
2023-04-16T23:50:09.084Z,1.90
2023-04-16T23:52:36.583Z,2.05
2023-04-16T23:55:04.406Z,1.98
2023-04-16T23:57:31.822Z,2.10
2023-04-16T23:59:59.743Z,2.50
